sensor_id;sensor_type;location;lat;lon;timestamp;pressure;altitude;pressure_sealevel;temperature;humidity
51530;BME280;37613;51.788;21.582;2023-03-03T01:22:09;100414.10;;;-4.26;88.97
51530;BME280;37613;51.788;21.582;2023-03-03T01:58:32;100371.79;;;-4.45;88.87
51530;BME280;37613;51.788;21.582;2023-03-03T02:19:04;100368.23;;;-4.50;88.76
51530;BME280;37613;51.788;21.582;2023-03-03T03:20:47;100331.00;;;-4.54;88.96
51530;BME280;37613;51.788;21.582;2023-03-03T04:30:40;100322.63;;;-3.84;91.01
51530;BME280;37613;51.788;21.582;2023-03-03T04:50:22;100278.39;;;-3.49;91.71
51530;BME280;37613;51.788;21.582;2023-03-03T05:05:53;100273.66;;;-3.43;92.14
51530;BME280;37613;51.788;21.582;2023-03-03T05:52:33;100277.84;;;-3.18;92.55
51530;BME280;37613;51.788;21.582;2023-03-03T08:40:10;100288.20;;;-0.98;99.87
51530;BME280;37613;51.788;21.582;2023-03-03T12:21:53;100197.44;;;1.27;95.29
51530;BME280;37613;51.788;21.582;2023-03-03T12:37:50;100192.77;;;1.21;94.80
51530;BME280;37613;51.788;21.582;2023-03-03T14:14:24;100199.23;;;0.04;94.16
51530;BME280;37613;51.788;21.582;2023-03-03T18:24:38;100174.76;;;-1.53;97.26
51530;BME280;37613;51.788;21.582;2023-03-03T19:54:13;100130.90;;;-1.43;97.49
51530;BME280;37613;51.788;21.582;2023-03-03T20:16:17;100083.72;;;-1.58;97.21
51530;BME280;37613;51.788;21.582;2023-03-03T20:20:34;100088.48;;;-1.61;97.21
51530;BME280;37613;51.788;21.582;2023-03-03T20:33:31;100087.11;;;-1.62;97.44
51530;BME280;37613;51.788;21.582;2023-03-03T20:42:32;100085.65;;;-1.61;97.30
51530;BME280;37613;51.788;21.582;2023-03-03T20:46:56;100082.17;;;-1.59;97.28
51530;BME280;37613;51.788;21.582;2023-03-03T20:51:39;100090.36;;;-1.57;97.28
51530;BME280;37613;51.788;21.582;2023-03-03T21:04:27;100070.66;;;-1.53;97.15
51530;BME280;37613;51.788;21.582;2023-03-03T21:08:47;100055.96;;;-1.52;97.06
51530;BME280;37613;51.788;21.582;2023-03-03T21:12:56;100045.61;;;-1.51;97.07
51530;BME280;37613;51.788;21.582;2023-03-03T21:17:25;100038.23;;;-1.50;97.02
51530;BME280;37613;51.788;21.582;2023-03-03T21:21:42;100023.93;;;-1.50;96.94
51530;BME280;37613;51.788;21.582;2023-03-03T21:25:50;100033.49;;;-1.48;96.70
51530;BME280;37613;51.788;21.582;2023-03-03T21:30:13;100036.91;;;-1.48;96.39
51530;BME280;37613;51.788;21.582;2023-03-03T21:34:31;100040.46;;;-1.47;96.37
51530;BME280;37613;51.788;21.582;2023-03-03T21:38:35;100039.38;;;-1.45;96.37
51530;BME280;37613;51.788;21.582;2023-03-03T21:42:40;100032.24;;;-1.43;96.45
51530;BME280;37613;51.788;21.582;2023-03-03T21:46:43;100033.00;;;-1.42;96.42
51530;BME280;37613;51.788;21.582;2023-03-03T21:50:45;100028.73;;;-1.42;96.09
51530;BME280;37613;51.788;21.582;2023-03-03T21:54:50;100021.48;;;-1.43;95.77
51530;BME280;37613;51.788;21.582;2023-03-03T21:58:52;100016.24;;;-1.44;95.60
51530;BME280;37613;51.788;21.582;2023-03-03T22:02:55;100008.34;;;-1.44;95.58
51530;BME280;37613;51.788;21.582;2023-03-03T22:06:57;100010.60;;;-1.44;95.41
51530;BME280;37613;51.788;21.582;2023-03-03T22:11:00;100008.84;;;-1.43;95.41
51530;BME280;37613;51.788;21.582;2023-03-03T22:15:03;100007.87;;;-1.42;95.62
51530;BME280;37613;51.788;21.582;2023-03-03T22:19:05;99995.30;;;-1.40;95.69
51530;BME280;37613;51.788;21.582;2023-03-03T22:23:10;99995.73;;;-1.40;95.73
51530;BME280;37613;51.788;21.582;2023-03-03T22:27:12;99991.83;;;-1.40;95.37
51530;BME280;37613;51.788;21.582;2023-03-03T22:31:15;99979.94;;;-1.41;95.27
51530;BME280;37613;51.788;21.582;2023-03-03T22:35:17;99969.98;;;-1.39;95.32
51530;BME280;37613;51.788;21.582;2023-03-03T22:39:19;99964.30;;;-1.40;95.14
51530;BME280;37613;51.788;21.582;2023-03-03T22:43:21;99959.03;;;-1.40;95.02
51530;BME280;37613;51.788;21.582;2023-03-03T22:47:23;99954.75;;;-1.38;95.08
51530;BME280;37613;51.788;21.582;2023-03-03T22:51:25;99943.36;;;-1.38;94.96
51530;BME280;37613;51.788;21.582;2023-03-03T22:55:27;99938.58;;;-1.38;94.93
51530;BME280;37613;51.788;21.582;2023-03-03T22:59:30;99928.67;;;-1.37;94.93
51530;BME280;37613;51.788;21.582;2023-03-03T23:03:33;99920.42;;;-1.36;94.95
51530;BME280;37613;51.788;21.582;2023-03-03T23:07:37;99912.11;;;-1.34;95.04
51530;BME280;37613;51.788;21.582;2023-03-03T23:11:40;99903.16;;;-1.33;95.04
51530;BME280;37613;51.788;21.582;2023-03-03T23:15:42;99897.00;;;-1.32;94.88
51530;BME280;37613;51.788;21.582;2023-03-03T23:19:44;99888.93;;;-1.31;94.93
51530;BME280;37613;51.788;21.582;2023-03-03T23:23:49;99875.86;;;-1.30;94.91
51530;BME280;37613;51.788;21.582;2023-03-03T23:27:52;99870.34;;;-1.29;94.82
51530;BME280;37613;51.788;21.582;2023-03-03T23:31:54;99862.05;;;-1.26;94.87
51530;BME280;37613;51.788;21.582;2023-03-03T23:35:56;99854.25;;;-1.25;94.92
51530;BME280;37613;51.788;21.582;2023-03-03T23:39:58;99851.52;;;-1.24;94.89
51530;BME280;37613;51.788;21.582;2023-03-03T23:44:00;99847.73;;;-1.22;94.99
51530;BME280;37613;51.788;21.582;2023-03-03T23:48:03;99840.27;;;-1.20;95.05
51530;BME280;37613;51.788;21.582;2023-03-03T23:52:05;99834.29;;;-1.18;95.04
51530;BME280;37613;51.788;21.582;2023-03-03T23:56:08;99825.45;;;-1.17;95.05
